sensor_id;sensor_type;location;lat;lon;timestamp;P1;durP1;ratioP1;P2;durP2;ratioP2
43690;SDS011;29293;52.190;21.226;2023-02-28T00:04:48;53.50;;;20.70;;
43690;SDS011;29293;52.190;21.226;2023-02-28T00:20:08;49.90;;;20.60;;
43690;SDS011;29293;52.190;21.226;2023-02-28T00:35:20;51.40;;;21.80;;
43690;SDS011;29293;52.190;21.226;2023-02-28T00:50:30;52.80;;;19.60;;
43690;SDS011;29293;52.190;21.226;2023-02-28T01:05:40;40.80;;;16.50;;
43690;SDS011;29293;52.190;21.226;2023-02-28T01:20:50;43.80;;;17.50;;
43690;SDS011;29293;52.190;21.226;2023-02-28T01:36:00;41.70;;;17.10;;
43690;SDS011;29293;52.190;21.226;2023-02-28T01:51:14;41.40;;;17.10;;
43690;SDS011;29293;52.190;21.226;2023-02-28T02:06:30;35.70;;;15.40;;
43690;SDS011;29293;52.190;21.226;2023-02-28T02:21:57;33.90;;;14.90;;
43690;SDS011;29293;52.190;21.226;2023-02-28T02:38:03;35.00;;;14.00;;
43690;SDS011;29293;52.190;21.226;2023-02-28T02:53:19;36.60;;;14.00;;
43690;SDS011;29293;52.190;21.226;2023-02-28T03:08:37;39.50;;;14.60;;
43690;SDS011;29293;52.190;21.226;2023-02-28T03:23:46;31.20;;;15.20;;
43690;SDS011;29293;52.190;21.226;2023-02-28T03:38:59;56.00;;;19.40;;
43690;SDS011;29293;52.190;21.226;2023-02-28T03:54:13;47.50;;;19.40;;
43690;SDS011;29293;52.190;21.226;2023-02-28T04:09:23;42.90;;;19.40;;
43690;SDS011;29293;52.190;21.226;2023-02-28T04:24:32;46.30;;;18.90;;
43690;SDS011;29293;52.190;21.226;2023-02-28T04:39:39;51.30;;;20.60;;
43690;SDS011;29293;52.190;21.226;2023-02-28T04:54:47;57.40;;;22.70;;
43690;SDS011;29293;52.190;21.226;2023-02-28T05:09:54;68.80;;;25.70;;
43690;SDS011;29293;52.190;21.226;2023-02-28T05:25:01;60.90;;;26.10;;
43690;SDS011;29293;52.190;21.226;2023-02-28T05:40:10;62.60;;;26.60;;
43690;SDS011;29293;52.190;21.226;2023-02-28T05:55:19;66.10;;;27.10;;
43690;SDS011;29293;52.190;21.226;2023-02-28T06:10:31;69.00;;;27.60;;
43690;SDS011;29293;52.190;21.226;2023-02-28T06:25:40;61.00;;;27.00;;
43690;SDS011;29293;52.190;21.226;2023-02-28T06:40:57;56.20;;;24.40;;
43690;SDS011;29293;52.190;21.226;2023-02-28T06:56:08;42.60;;;17.40;;
43690;SDS011;29293;52.190;21.226;2023-02-28T07:11:18;41.50;;;17.50;;
43690;SDS011;29293;52.190;21.226;2023-02-28T07:26:29;44.00;;;18.80;;
43690;SDS011;29293;52.190;21.226;2023-02-28T07:41:37;22.80;;;9.90;;
43690;SDS011;29293;52.190;21.226;2023-02-28T07:56:48;17.30;;;9.50;;
43690;SDS011;29293;52.190;21.226;2023-02-28T08:11:56;14.20;;;7.90;;
43690;SDS011;29293;52.190;21.226;2023-02-28T08:27:04;15.70;;;8.30;;
43690;SDS011;29293;52.190;21.226;2023-02-28T08:42:16;16.30;;;9.30;;
43690;SDS011;29293;52.190;21.226;2023-02-28T08:57:24;10.80;;;6.70;;
43690;SDS011;29293;52.190;21.226;2023-02-28T09:12:33;21.70;;;10.20;;
43690;SDS011;29293;52.190;21.226;2023-02-28T09:27:42;19.00;;;9.90;;
43690;SDS011;29293;52.190;21.226;2023-02-28T09:42:50;20.30;;;10.10;;
43690;SDS011;29293;52.190;21.226;2023-02-28T09:58:00;17.20;;;9.50;;
43690;SDS011;29293;52.190;21.226;2023-02-28T10:13:21;17.10;;;9.90;;
43690;SDS011;29293;52.190;21.226;2023-02-28T10:28:57;17.10;;;8.90;;
43690;SDS011;29293;52.190;21.226;2023-02-28T10:44:14;20.60;;;11.70;;
43690;SDS011;29293;52.190;21.226;2023-02-28T10:59:28;16.10;;;9.60;;
43690;SDS011;29293;52.190;21.226;2023-02-28T11:14:39;16.60;;;11.30;;
43690;SDS011;29293;52.190;21.226;2023-02-28T11:29:53;18.50;;;11.60;;
43690;SDS011;29293;52.190;21.226;2023-02-28T11:45:11;18.60;;;12.50;;
43690;SDS011;29293;52.190;21.226;2023-02-28T12:00:40;22.20;;;12.30;;
43690;SDS011;29293;52.190;21.226;2023-02-28T12:16:06;23.80;;;12.60;;
43690;SDS011;29293;52.190;21.226;2023-02-28T12:31:33;21.80;;;13.00;;
43690;SDS011;29293;52.190;21.226;2023-02-28T12:46:45;21.00;;;12.80;;
43690;SDS011;29293;52.190;21.226;2023-02-28T13:17:38;23.30;;;13.30;;
43690;SDS011;29293;52.190;21.226;2023-02-28T13:32:47;26.50;;;14.10;;
43690;SDS011;29293;52.190;21.226;2023-02-28T13:48:34;26.80;;;13.90;;
43690;SDS011;29293;52.190;21.226;2023-02-28T14:18:58;25.00;;;14.30;;
43690;SDS011;29293;52.190;21.226;2023-02-28T14:34:20;24.90;;;14.90;;
43690;SDS011;29293;52.190;21.226;2023-02-28T14:49:41;30.20;;;13.80;;
43690;SDS011;29293;52.190;21.226;2023-02-28T15:04:53;19.80;;;11.60;;
43690;SDS011;29293;52.190;21.226;2023-02-28T15:20:04;25.50;;;12.60;;
43690;SDS011;29293;52.190;21.226;2023-02-28T15:35:19;25.90;;;13.20;;
43690;SDS011;29293;52.190;21.226;2023-02-28T15:50:34;23.40;;;11.70;;
43690;SDS011;29293;52.190;21.226;2023-02-28T16:06:26;19.80;;;10.70;;
43690;SDS011;29293;52.190;21.226;2023-02-28T16:21:40;27.60;;;11.60;;
43690;SDS011;29293;52.190;21.226;2023-02-28T16:36:49;19.50;;;11.20;;
43690;SDS011;29293;52.190;21.226;2023-02-28T17:07:02;32.50;;;14.50;;
43690;SDS011;29293;52.190;21.226;2023-02-28T17:22:10;36.60;;;17.70;;
43690;SDS011;29293;52.190;21.226;2023-02-28T17:37:17;28.90;;;17.10;;
43690;SDS011;29293;52.190;21.226;2023-02-28T17:52:25;29.50;;;17.00;;
43690;SDS011;29293;52.190;21.226;2023-02-28T18:07:33;32.70;;;15.70;;
43690;SDS011;29293;52.190;21.226;2023-02-28T18:22:43;33.10;;;14.20;;
43690;SDS011;29293;52.190;21.226;2023-02-28T18:37:50;26.80;;;15.00;;
43690;SDS011;29293;52.190;21.226;2023-02-28T18:53:00;32.40;;;17.80;;
43690;SDS011;29293;52.190;21.226;2023-02-28T19:08:10;44.80;;;19.30;;
43690;SDS011;29293;52.190;21.226;2023-02-28T19:23:17;58.30;;;24.90;;
43690;SDS011;29293;52.190;21.226;2023-02-28T19:38:27;47.60;;;22.90;;
43690;SDS011;29293;52.190;21.226;2023-02-28T19:53:40;64.90;;;30.20;;
43690;SDS011;29293;52.190;21.226;2023-02-28T20:08:52;60.20;;;27.50;;
43690;SDS011;29293;52.190;21.226;2023-02-28T20:24:01;54.30;;;26.80;;
43690;SDS011;29293;52.190;21.226;2023-02-28T20:39:09;47.80;;;21.10;;
43690;SDS011;29293;52.190;21.226;2023-02-28T20:54:19;56.90;;;26.70;;
43690;SDS011;29293;52.190;21.226;2023-02-28T21:09:27;47.40;;;23.50;;
43690;SDS011;29293;52.190;21.226;2023-02-28T21:24:34;62.70;;;25.30;;
43690;SDS011;29293;52.190;21.226;2023-02-28T21:39:42;56.70;;;26.30;;
43690;SDS011;29293;52.190;21.226;2023-02-28T21:54:50;68.50;;;28.60;;
43690;SDS011;29293;52.190;21.226;2023-02-28T22:09:57;70.00;;;30.80;;
43690;SDS011;29293;52.190;21.226;2023-02-28T22:25:06;67.20;;;28.40;;
43690;SDS011;29293;52.190;21.226;2023-02-28T22:40:14;68.10;;;28.50;;
43690;SDS011;29293;52.190;21.226;2023-02-28T22:55:21;67.40;;;29.30;;
43690;SDS011;29293;52.190;21.226;2023-02-28T23:10:30;93.00;;;38.60;;
43690;SDS011;29293;52.190;21.226;2023-02-28T23:25:39;88.60;;;34.70;;
43690;SDS011;29293;52.190;21.226;2023-02-28T23:40:47;90.70;;;36.10;;
43690;SDS011;29293;52.190;21.226;2023-02-28T23:55:54;82.80;;;35.30;;
